Weather History for Hutchinson, MN

Change the Weather History Date:

Thursday, December 15, 2011

  Actual Average Record
Temperature  
Mean Temperature 28 °F -  
Max Temperature 35 °F 27 °F 49 °F (1957)
Min Temperature 22 °F 10 °F -17 °F (1961)
Degree Days  
Heating Degree Days 36    
Moisture  
Dew Point 25 °F    
Average Humidity 80    
Maximum Humidity 98    
Minimum Humidity 66    
Precipitation  
Precipitation 0.00 in - - ()
Sea Level Pressure  
Sea Level Pressure 29.98 in    
Wind  
Wind Speed 18 mph (WNW)    
Max Wind Speed 25 mph    
Max Gust Speed 36 mph    
Visibility 10 miles    
Events      
Averages and records for this station are not official NWS values.
T = Trace of Precipitation, MM = Missing Value Source: NWS Daily Summary

Daily Weather History Graph

Daily Weather History Graph

Search for Another Location

Airport:

Trip Planner

Search our weather history database for the weather conditions in past years. The results will help you decide how hot, cold, wet, or windy it might be!

Date:

Astronomy

Dec. 15, 2011 Rise Set
Actual Time 7:48 AM CST 4:36 PM CST
Civil Twilight 7:14 AM CST 5:10 PM CST
Nautical Twilight 6:37 AM CST 5:47 PM CST
Astronomical Twilight 6:01 AM CST 6:23 PM CST
Moon 10:15 PM CST (12/15) 10:54 AM CST (12/15)
Length of Visible Light 9h 56m
Length of Day
8h 48m
Waning Gibbous, 74% of the Moon is Illuminated
Dec 15
Waning Gibbous
Dec 17
Last Quarter
Dec 24
New
Jan 1
First Quarter
Jan 9
Full

Hourly Weather History & Observations

Time (CST) Temp. Windchill Dew Point Humidity Pressure Visibility Wind Dir Wind Speed Gust Speed Precip Events Conditions
12:12 AM 35.6 °F 25.5 °F 34.9 °F 97% 29.69 in 10.0 mi West 17.3 mph 25.3 mph N/A   Overcast
12:33 AM 34.7 °F 24.7 °F 34.0 °F 97% 29.69 in 10.0 mi West 16.1 mph 24.2 mph N/A   Overcast
12:52 AM 34.3 °F 24.6 °F 33.8 °F 98% 29.70 in 10.0 mi WNW 15.0 mph 18.4 mph N/A   Overcast
1:13 AM 34.3 °F 24.6 °F 33.8 °F 98% 29.71 in 10.0 mi West 15.0 mph 21.9 mph N/A   Overcast
1:33 AM 34.3 °F 23.9 °F 33.8 °F 98% 29.71 in 10.0 mi WNW 17.3 mph 24.2 mph N/A   Overcast
1:52 AM 34.3 °F 23.9 °F 33.6 °F 97% 29.71 in 10.0 mi WNW 17.3 mph 26.5 mph N/A   Overcast
2:13 AM 32.5 °F 21.2 °F 31.6 °F 96% 29.73 in 10.0 mi WNW 18.4 mph 29.9 mph N/A   Overcast
2:32 AM 32.0 °F 21.2 °F 31.1 °F 96% 29.74 in 7.0 mi WNW 16.1 mph 29.9 mph N/A   Overcast
2:53 AM 32.0 °F 19.8 °F 30.7 °F 95% 29.75 in 7.0 mi West 20.7 mph 27.6 mph N/A   Overcast
3:13 AM 30.9 °F 17.5 °F 28.9 °F 92% 29.76 in 10.0 mi West 24.2 mph 32.2 mph N/A   Overcast
3:52 AM 29.7 °F 16.4 °F 25.9 °F 86% 29.77 in 10.0 mi WNW 21.9 mph 31.1 mph N/A   Overcast
4:12 AM 29.7 °F 16.4 °F 25.7 °F 85% 29.78 in 10.0 mi WNW 21.9 mph 27.6 mph N/A   Overcast
4:33 AM 29.7 °F 15.5 °F 25.0 °F 83% 29.78 in 10.0 mi NW 25.3 mph 31.1 mph N/A   Overcast
4:52 AM 29.7 °F 17.8 °F 24.8 °F 82% 29.79 in 10.0 mi WNW 17.3 mph 28.8 mph N/A   Overcast
5:12 AM 29.7 °F 17.1 °F 25.2 °F 83% 29.80 in 10.0 mi WNW 19.6 mph 27.6 mph N/A   Overcast
5:33 AM 29.7 °F 17.4 °F 25.5 °F 85% 29.82 in 10.0 mi West 18.4 mph 24.2 mph N/A   Overcast
6:13 AM 30.2 °F 19.8 °F 26.1 °F 85% 29.84 in 10.0 mi West 13.8 mph - N/A   Overcast
6:32 AM 30.9 °F 19.4 °F 26.4 °F 83% 29.84 in 10.0 mi West 17.3 mph 23.0 mph N/A   Overcast
6:52 AM 31.5 °F 20.9 °F 26.8 °F 83% 29.85 in 10.0 mi West 15.0 mph 21.9 mph N/A   Overcast
7:13 AM 32.0 °F 20.5 °F 27.5 °F 83% 29.86 in 10.0 mi West 18.4 mph 23.0 mph N/A   Overcast
7:33 AM 32.0 °F 20.1 °F 27.1 °F 82% 29.86 in 10.0 mi West 19.6 mph - N/A   Overcast
7:52 AM 32.0 °F 20.5 °F 26.6 °F 80% 29.87 in 10.0 mi West 18.4 mph 25.3 mph N/A   Overcast
8:12 AM 32.0 °F 20.1 °F 26.6 °F 80% 29.89 in 10.0 mi West 19.6 mph 27.6 mph N/A   Overcast
8:33 AM 32.0 °F 19.5 °F 26.1 °F 79% 29.89 in 10.0 mi West 21.9 mph 27.6 mph N/A   Overcast
8:52 AM 32.0 °F 20.5 °F 25.7 °F 78% 29.91 in 10.0 mi WNW 18.4 mph 29.9 mph N/A   Overcast
9:13 AM 32.0 °F 20.8 °F 25.5 °F 77% 29.92 in 10.0 mi WNW 17.3 mph 35.7 mph N/A   Overcast
9:32 AM 32.0 °F 19.8 °F 25.7 °F 78% 29.93 in 10.0 mi WNW 20.7 mph 26.5 mph N/A   Overcast
9:53 AM 32.0 °F 19.8 °F 26.1 °F 79% 29.95 in 10.0 mi WNW 20.7 mph 28.8 mph N/A   Overcast
10:12 AM 32.0 °F 19.2 °F 26.1 °F 79% 29.96 in 10.0 mi WNW 23.0 mph 29.9 mph N/A   Overcast
10:32 AM 32.0 °F 19.8 °F 26.1 °F 79% 29.98 in 10.0 mi WNW 20.7 mph 29.9 mph N/A   Overcast
10:53 AM 32.0 °F 20.5 °F 25.7 °F 78% 29.98 in 10.0 mi WNW 18.4 mph 32.2 mph N/A   Overcast
11:13 AM 32.0 °F 19.5 °F 25.3 °F 76% 29.99 in 10.0 mi WNW 21.9 mph 29.9 mph N/A   Overcast
11:33 AM 32.0 °F 19.8 °F 24.6 °F 74% 30.00 in 10.0 mi WNW 20.7 mph 27.6 mph N/A   Overcast
11:52 AM 32.0 °F 20.1 °F 23.7 °F 71% 30.01 in 10.0 mi WNW 19.6 mph 32.2 mph N/A   Overcast
12:33 PM 32.0 °F 19.2 °F 23.0 °F 69% 30.02 in 10.0 mi WNW 23.0 mph 34.5 mph N/A   Overcast
1:13 PM 32.0 °F 19.5 °F 22.3 °F 67% 30.04 in 10.0 mi WNW 21.9 mph 34.5 mph N/A   Overcast
1:33 PM 32.0 °F 19.5 °F 22.3 °F 67% 30.05 in 10.0 mi WNW 21.9 mph 34.5 mph N/A   Overcast
1:52 PM 32.0 °F 18.9 °F 22.1 °F 67% 30.07 in 10.0 mi WNW 24.2 mph 35.7 mph N/A   Overcast
2:13 PM 31.5 °F 18.8 °F 21.6 °F 67% 30.08 in 10.0 mi WNW 21.9 mph 31.1 mph N/A   Overcast
2:33 PM 31.1 °F 17.7 °F 21.6 °F 68% 30.09 in 10.0 mi WNW 24.2 mph 29.9 mph N/A   Overcast
2:53 PM 32.0 °F 19.2 °F 21.7 °F 66% 30.10 in 10.0 mi WNW 23.0 mph 34.5 mph N/A   Mostly Cloudy
3:13 PM 32.0 °F 20.5 °F 22.6 °F 68% 30.12 in 10.0 mi WNW 18.4 mph 28.8 mph N/A   Mostly Cloudy
3:33 PM 31.8 °F 18.7 °F 21.7 °F 66% 30.13 in 10.0 mi WNW 24.2 mph 33.4 mph N/A   Overcast
3:53 PM 29.7 °F 17.4 °F 20.8 °F 70% 30.15 in 10.0 mi WNW 18.4 mph 27.6 mph N/A   Mostly Cloudy
4:13 PM 29.7 °F 17.1 °F 20.8 °F 70% 30.16 in 10.0 mi WNW 19.6 mph 25.3 mph N/A   Scattered Clouds
4:33 PM 29.7 °F 18.2 °F 21.2 °F 71% 30.18 in 10.0 mi WNW 16.1 mph 24.2 mph N/A   Clear
4:53 PM 29.7 °F 17.1 °F 21.2 °F 71% 30.19 in 10.0 mi WNW 19.6 mph 26.5 mph N/A   Clear
5:13 PM 28.0 °F 16.5 °F 20.3 °F 73% 30.20 in 10.0 mi WNW 15.0 mph 19.6 mph N/A   Clear
5:33 PM 27.1 °F 15.9 °F 19.9 °F 74% 30.21 in 10.0 mi WNW 13.8 mph - N/A   Clear
6:13 PM 27.1 °F 17.5 °F 20.1 °F 75% 30.22 in 10.0 mi WNW 10.4 mph - N/A   Clear
6:32 PM 25.9 °F 16.0 °F 19.6 °F 77% 30.23 in 10.0 mi WNW 10.4 mph - N/A   Clear
6:52 PM 24.6 °F 14.4 °F 18.9 °F 79% 30.24 in 10.0 mi WNW 10.4 mph - N/A   Clear
7:13 PM 24.6 °F 14.4 °F 19.0 °F 79% 30.24 in 10.0 mi WNW 10.4 mph - N/A   Clear
7:33 PM 24.6 °F 15.8 °F 19.4 °F 81% 30.25 in 10.0 mi NW 8.1 mph - N/A   Clear
7:52 PM 24.6 °F 13.8 °F 19.2 °F 80% 30.25 in 10.0 mi NW 11.5 mph - N/A   Clear
8:13 PM 24.6 °F 13.8 °F 18.1 °F 76% 30.26 in 10.0 mi NW 11.5 mph - N/A   Clear
8:33 PM 23.0 °F 13.1 °F 16.7 °F 77% 30.28 in 10.0 mi NW 9.2 mph - N/A   Clear
8:52 PM 22.1 °F 12.8 °F 16.7 °F 80% 30.28 in 10.0 mi NW 8.1 mph - N/A   Clear
9:13 PM 22.1 °F 11.3 °F 17.1 °F 81% 30.28 in 10.0 mi NW 10.4 mph - N/A   Clear
9:33 PM 21.9 °F 11.0 °F 16.9 °F 81% 30.29 in 10.0 mi NW 10.4 mph - N/A   Clear
9:53 PM 21.6 °F 11.3 °F 16.3 °F 80% 30.29 in 10.0 mi WNW 9.2 mph - N/A   Clear
10:13 PM 20.8 °F 11.2 °F 16.0 °F 81% 30.30 in 10.0 mi NW 8.1 mph - N/A   Clear
10:33 PM 20.3 °F 12.5 °F 15.4 °F 81% 30.30 in 10.0 mi WNW 5.8 mph - N/A   Clear
10:52 PM 19.4 °F 14.3 °F 14.9 °F 83% 30.31 in 10.0 mi NW 3.5 mph - N/A   Clear
11:13 PM 19.4 °F 10.4 °F 15.3 °F 84% 30.33 in 10.0 mi West 6.9 mph - N/A   Clear
11:32 PM 19.4 °F 14.3 °F 15.8 °F 86% 30.33 in 10.0 mi WSW 3.5 mph - N/A   Clear
11:53 PM 17.2 °F 10.2 °F 13.5 °F 85% 30.35 in 10.0 mi West 4.6 mph - N/A   Clear